createdAt,value
2023-02-03T00:01:58.007Z,101622.88
2023-02-03T00:04:29.166Z,101606.00
2023-02-03T00:07:00.638Z,101610.69
2023-02-03T00:09:32.353Z,101611.00
2023-02-03T00:12:03.472Z,101613.47
2023-02-03T00:14:35.176Z,101621.09
2023-02-03T00:17:06.946Z,101606.38
2023-02-03T00:19:38.703Z,101592.38
2023-02-03T00:22:09.249Z,101603.88
2023-02-03T00:24:40.645Z,101607.50
2023-02-03T00:27:11.862Z,101604.47
2023-02-03T00:29:42.932Z,101597.09
2023-02-03T00:32:14.143Z,101602.47
2023-02-03T00:34:44.737Z,101599.38
2023-02-03T00:37:16.804Z,101595.75
2023-02-03T00:39:48.022Z,101597.25
2023-02-03T00:42:19.188Z,101599.41
2023-02-03T00:44:50.314Z,101600.19
2023-02-03T00:47:21.720Z,101582.81
2023-02-03T00:49:54.231Z,101600.78
2023-02-03T00:52:25.636Z,101592.91
2023-02-03T00:54:56.190Z,101599.72
2023-02-03T00:57:27.517Z,101604.16
2023-02-03T00:59:59.518Z,101595.53
2023-02-03T01:02:30.705Z,101603.06
2023-02-03T01:05:01.869Z,101598.03
2023-02-03T01:07:36.720Z,101605.22
2023-02-03T01:10:08.526Z,101597.38
2023-02-03T01:12:39.647Z,101587.69
2023-02-03T01:15:11.169Z,101592.56
2023-02-03T01:17:42.671Z,101598.41
2023-02-03T01:20:15.323Z,101590.69
2023-02-03T01:22:46.548Z,101590.16
2023-02-03T01:25:17.669Z,101590.97
2023-02-03T01:27:50.160Z,101589.25
2023-02-03T01:30:21.605Z,101595.88
2023-02-03T01:32:52.678Z,101592.09
2023-02-03T01:35:23.777Z,101605.81
2023-02-03T01:37:55.268Z,101601.97
2023-02-03T01:40:26.694Z,101647.59
2023-02-03T01:42:57.928Z,101658.28
2023-02-03T01:45:29.124Z,101684.19
2023-02-03T01:48:01.642Z,101690.25
2023-02-03T01:50:36.936Z,101693.06
2023-02-03T01:53:13.426Z,101701.50
2023-02-03T01:55:49.247Z,101694.03
2023-02-03T02:00:53.386Z,101683.69
2023-02-03T02:03:33.678Z,101684.56
2023-02-03T02:06:06.553Z,101685.50
2023-02-03T02:08:39.219Z,101683.03
2023-02-03T02:11:10.812Z,101679.78
2023-02-03T02:13:45.480Z,101673.78
2023-02-03T02:16:19.322Z,101669.50
2023-02-03T02:19:13.300Z,101672.31
2023-02-03T02:21:52.803Z,101673.44
2023-02-03T02:24:32.817Z,101676.75
2023-02-03T02:27:13.032Z,101674.19
2023-02-03T02:29:47.223Z,101677.28
2023-02-03T02:32:26.197Z,101674.00
2023-02-03T02:35:08.886Z,101677.69
2023-02-03T02:38:03.470Z,101674.69
2023-02-03T02:40:38.682Z,101669.03
2023-02-03T02:43:14.929Z,101666.22
2023-02-03T02:45:49.521Z,101668.31
2023-02-03T02:48:24.209Z,101667.34
2023-02-03T02:50:57.448Z,101659.44
2023-02-03T02:53:32.539Z,101654.63
2023-02-03T02:56:07.327Z,101660.97
2023-02-03T02:58:40.844Z,101659.25
2023-02-03T03:01:12.302Z,101668.13
2023-02-03T03:03:46.659Z,101666.53
2023-02-03T03:06:31.468Z,101662.13
2023-02-03T03:09:05.726Z,101671.56
2023-02-03T03:11:49.182Z,101667.91
2023-02-03T03:14:22.328Z,101655.03
2023-02-03T03:16:59.502Z,101645.59
2023-02-03T03:19:35.065Z,101661.66
2023-02-03T03:22:09.551Z,101651.47
2023-02-03T03:24:44.521Z,101644.09
2023-02-03T03:27:20.795Z,101643.50
2023-02-03T03:29:55.161Z,101642.91
2023-02-03T03:32:29.657Z,101644.56
2023-02-03T03:35:02.048Z,101647.06
2023-02-03T03:37:42.600Z,101652.13
2023-02-03T03:40:26.364Z,101648.66
2023-02-03T03:42:58.357Z,101653.59
2023-02-03T03:45:57.529Z,101646.91
2023-02-03T03:48:36.745Z,101645.72
2023-02-03T03:51:13.871Z,101653.72
2023-02-03T03:53:45.936Z,101653.53
2023-02-03T03:56:22.078Z,101646.03
2023-02-03T03:58:55.336Z,101652.09
2023-02-03T04:01:26.481Z,101659.31
2023-02-03T04:04:00.702Z,101653.22
2023-02-03T04:06:31.985Z,101645.50
2023-02-03T04:09:03.687Z,101650.94
2023-02-03T04:11:52.262Z,101651.75
2023-02-03T04:14:23.356Z,101639.50
2023-02-03T04:16:54.532Z,101651.81
2023-02-03T04:19:25.786Z,101656.72
2023-02-03T04:21:56.962Z,101645.22
2023-02-03T04:24:28.177Z,101645.38
2023-02-03T04:26:59.373Z,101632.09
2023-02-03T04:29:30.588Z,101644.03
2023-02-03T04:32:01.950Z,101647.50
2023-02-03T04:34:33.023Z,101652.59
2023-02-03T04:37:04.287Z,101656.78
2023-02-03T04:39:35.268Z,101637.22
2023-02-03T04:42:06.764Z,101657.09
2023-02-03T04:44:38.603Z,101651.94
2023-02-03T04:47:09.549Z,101650.81
2023-02-03T04:49:40.587Z,101649.56
2023-02-03T04:52:12.124Z,101633.16
2023-02-03T04:54:42.628Z,101637.34
2023-02-03T04:57:13.671Z,101634.09
2023-02-03T04:59:44.810Z,101637.66
2023-02-03T05:02:16.076Z,101643.88
2023-02-03T05:04:47.113Z,101642.34
2023-02-03T05:07:18.478Z,101642.06
2023-02-03T05:09:49.520Z,101638.25
2023-02-03T05:12:20.712Z,101642.28
2023-02-03T05:14:52.065Z,101627.50
2023-02-03T05:17:23.229Z,101639.28
2023-02-03T05:19:54.456Z,101637.75
2023-02-03T05:22:25.718Z,101624.09
2023-02-03T05:24:57.009Z,101625.75
2023-02-03T05:27:27.859Z,101618.13
2023-02-03T05:29:59.027Z,101607.84
2023-02-03T05:32:29.728Z,101617.13
2023-02-03T05:35:00.971Z,101625.44
2023-02-03T05:37:33.463Z,101628.78
2023-02-03T05:40:26.260Z,101626.00
2023-02-03T05:42:57.872Z,101626.59
2023-02-03T05:45:29.974Z,101634.16
2023-02-03T05:48:01.167Z,101632.28
2023-02-03T05:50:38.444Z,101638.91
2023-02-03T05:53:12.874Z,101639.88
2023-02-03T05:55:44.334Z,101643.41
2023-02-03T05:58:15.761Z,101645.09
2023-02-03T06:00:46.953Z,101642.91
2023-02-03T06:03:17.888Z,101650.09
2023-02-03T06:05:49.455Z,101660.34
2023-02-03T06:08:20.430Z,101644.53
2023-02-03T06:10:51.542Z,101661.25
2023-02-03T06:13:22.763Z,101667.56
2023-02-03T06:15:54.302Z,101674.00
2023-02-03T06:18:25.756Z,101680.69
2023-02-03T06:20:56.969Z,101678.03
2023-02-03T06:23:28.475Z,101694.25
2023-02-03T06:26:02.292Z,101684.19
2023-02-03T06:28:34.968Z,101696.13
2023-02-03T06:31:07.234Z,101699.59
2023-02-03T06:33:38.790Z,101674.91
2023-02-03T06:36:10.490Z,101692.25
2023-02-03T06:38:41.120Z,101693.09
2023-02-03T06:41:12.409Z,101694.22
2023-02-03T06:43:43.511Z,101691.91
2023-02-03T06:46:15.173Z,101689.88
2023-02-03T06:48:46.444Z,101688.91
2023-02-03T06:51:17.639Z,101687.13
2023-02-03T06:53:48.809Z,101706.94
2023-02-03T06:56:19.992Z,101704.72
2023-02-03T06:58:50.978Z,101724.44
2023-02-03T07:01:22.061Z,101724.16
2023-02-03T07:03:53.504Z,101721.34
2023-02-03T07:06:24.053Z,101723.03
2023-02-03T07:08:55.267Z,101733.56
2023-02-03T07:11:26.190Z,101731.19
2023-02-03T07:13:57.618Z,101729.06
2023-02-03T07:16:29.165Z,101741.50
2023-02-03T07:19:01.568Z,101717.00
2023-02-03T07:21:32.806Z,101736.91
2023-02-03T07:24:05.096Z,101747.97
2023-02-03T07:26:36.066Z,101746.09
2023-02-03T07:29:07.054Z,101749.06
2023-02-03T07:31:38.246Z,101760.03
2023-02-03T07:34:09.751Z,101763.06
2023-02-03T07:36:41.053Z,101760.41
2023-02-03T07:39:12.047Z,101773.50
2023-02-03T07:41:43.240Z,101773.78
2023-02-03T07:44:17.918Z,101785.00
2023-02-03T07:46:49.772Z,101789.97
2023-02-03T07:49:21.021Z,101796.84
2023-02-03T07:51:52.429Z,101797.34
2023-02-03T07:54:23.649Z,101805.09
2023-02-03T07:56:55.877Z,101806.44
2023-02-03T07:59:27.045Z,101806.00
2023-02-03T08:01:58.494Z,101813.28
2023-02-03T08:04:30.051Z,101826.50
2023-02-03T08:07:01.252Z,101834.44
2023-02-03T08:09:32.704Z,101836.38
2023-02-03T08:12:03.754Z,101835.59
2023-02-03T08:14:34.789Z,101849.78
2023-02-03T08:17:06.195Z,101856.13
2023-02-03T08:19:37.373Z,101851.16
2023-02-03T08:22:08.619Z,101857.75
2023-02-03T08:24:39.649Z,101841.63
2023-02-03T08:27:11.065Z,101859.63
2023-02-03T08:29:41.923Z,101856.97
2023-02-03T08:32:14.438Z,101848.31
2023-02-03T08:34:46.346Z,101857.28
2023-02-03T08:37:17.775Z,101867.97
2023-02-03T08:39:49.015Z,101869.13
2023-02-03T08:42:20.282Z,101880.91
2023-02-03T08:44:51.568Z,101889.19
2023-02-03T08:47:23.619Z,101879.56
2023-02-03T08:49:54.754Z,101888.59
2023-02-03T08:52:26.026Z,101885.56
2023-02-03T08:54:57.414Z,101875.50
2023-02-03T08:57:28.744Z,101895.97
2023-02-03T08:59:59.726Z,101897.91
2023-02-03T09:02:33.855Z,101896.53
2023-02-03T09:05:05.241Z,101908.63
2023-02-03T09:07:36.758Z,101898.78
2023-02-03T09:10:08.077Z,101914.69
2023-02-03T09:12:39.194Z,101909.75
2023-02-03T09:15:10.579Z,101904.88
2023-02-03T09:17:41.995Z,101914.41
2023-02-03T09:20:16.531Z,101910.28
2023-02-03T09:22:47.971Z,101919.34
2023-02-03T09:25:19.513Z,101908.75
2023-02-03T09:27:50.332Z,101922.69
2023-02-03T09:30:21.710Z,101924.31
2023-02-03T09:32:55.907Z,101918.28
2023-02-03T09:35:28.395Z,101918.84
2023-02-03T09:38:02.346Z,101919.09
2023-02-03T09:40:37.495Z,101924.84
2023-02-03T09:43:33.768Z,101923.47
2023-02-03T09:46:30.302Z,101906.00
2023-02-03T09:49:14.557Z,101896.16
2023-02-03T09:52:20.599Z,101897.53
2023-02-03T09:55:01.625Z,101904.63
2023-02-03T09:57:39.603Z,101904.09
2023-02-03T10:00:53.889Z,101908.19
2023-02-03T10:03:34.046Z,101910.41
2023-02-03T10:06:45.516Z,101907.09
2023-02-03T10:09:26.005Z,101916.13
2023-02-03T10:12:38.023Z,101910.97
2023-02-03T10:15:24.688Z,101913.41
2023-02-03T10:18:08.461Z,101920.25
2023-02-03T10:20:56.501Z,101919.44
2023-02-03T10:23:32.561Z,101924.66
2023-02-03T10:26:09.160Z,101932.88
2023-02-03T10:28:42.683Z,101909.91
2023-02-03T10:31:21.660Z,101922.75
2023-02-03T10:34:12.291Z,101931.25
2023-02-03T10:37:30.304Z,101931.25
2023-02-03T10:40:03.128Z,101926.03
2023-02-03T10:42:55.316Z,101932.91
2023-02-03T10:45:26.450Z,101942.72
2023-02-03T10:47:58.426Z,101935.63
2023-02-03T10:50:33.108Z,101939.16
2023-02-03T10:53:27.487Z,101932.63
2023-02-03T10:56:13.851Z,101930.69
2023-02-03T10:58:56.980Z,101930.69
2023-02-03T11:01:31.063Z,101929.88
2023-02-03T11:04:05.336Z,101926.31
2023-02-03T11:06:38.194Z,101933.16
2023-02-03T11:09:29.324Z,101925.25
2023-02-03T11:12:23.146Z,101929.59
2023-02-03T11:14:56.014Z,101933.72
2023-02-03T11:17:29.229Z,101933.44
2023-02-03T11:20:08.167Z,101936.75
2023-02-03T11:22:41.083Z,101937.00
2023-02-03T11:25:29.171Z,101918.94
2023-02-03T11:28:07.101Z,101936.72
2023-02-03T11:30:40.231Z,101937.00
2023-02-03T11:33:23.802Z,101927.41
2023-02-03T11:36:00.523Z,101940.00
2023-02-03T11:38:34.882Z,101938.09
2023-02-03T11:41:06.201Z,101938.06
2023-02-03T11:43:36.989Z,101935.88
2023-02-03T11:46:11.791Z,101939.47
2023-02-03T11:48:50.225Z,101936.16
2023-02-03T11:52:16.351Z,101944.63
2023-02-03T11:55:34.546Z,101937.00
2023-02-03T11:58:24.848Z,101930.69
2023-02-03T12:01:06.886Z,101929.63
2023-02-03T12:03:56.130Z,101926.31
2023-02-03T12:06:57.130Z,101921.41
2023-02-03T12:10:12.556Z,101919.19
2023-02-03T12:12:53.603Z,101923.03
2023-02-03T12:15:42.701Z,101917.03
2023-02-03T12:18:23.092Z,101920.31
2023-02-03T12:21:08.722Z,101912.66
2023-02-03T12:23:54.697Z,101908.25
2023-02-03T12:26:36.952Z,101889.13
2023-02-03T12:29:12.361Z,101902.81
2023-02-03T12:31:46.980Z,101892.94
2023-02-03T12:34:40.768Z,101894.59
2023-02-03T12:37:17.869Z,101885.31
2023-02-03T12:39:55.467Z,101894.34
2023-02-03T12:42:35.014Z,101903.94
2023-02-03T12:45:14.586Z,101895.72
2023-02-03T12:47:58.816Z,101893.53
2023-02-03T12:50:56.188Z,101888.06
2023-02-03T12:53:39.592Z,101892.16
2023-02-03T12:56:35.699Z,101891.09
2023-02-03T12:59:10.943Z,101881.50
2023-02-03T13:01:52.551Z,101889.16
2023-02-03T13:04:40.697Z,101882.88
2023-02-03T13:07:48.971Z,101888.06
2023-02-03T13:10:55.853Z,101878.78
2023-02-03T13:13:41.720Z,101882.59
2023-02-03T13:16:14.478Z,101873.84
2023-02-03T13:18:50.249Z,101862.38
2023-02-03T13:21:22.463Z,101872.22
2023-02-03T13:23:53.300Z,101871.94
2023-02-03T13:26:50.043Z,101868.38
2023-02-03T13:29:49.513Z,101870.56
2023-02-03T13:32:38.130Z,101869.75
2023-02-03T13:35:14.636Z,101868.38
2023-02-03T13:38:03.206Z,101853.63
2023-02-03T13:40:43.146Z,101870.59
2023-02-03T13:43:35.737Z,101861.28
2023-02-03T13:46:10.820Z,101857.22
2023-02-03T13:48:41.975Z,101844.91
2023-02-03T13:51:31.329Z,101871.41
2023-02-03T13:54:16.258Z,101864.84
2023-02-03T13:57:03.750Z,101851.75
2023-02-03T13:59:40.640Z,101873.06
2023-02-03T14:02:47.211Z,101872.78
2023-02-03T14:05:44.102Z,101871.41
2023-02-03T14:08:30.613Z,101859.63
2023-02-03T14:11:39.298Z,101856.38
2023-02-03T14:14:11.080Z,101864.31
2023-02-03T14:16:43.759Z,101852.00
2023-02-03T14:19:35.492Z,101848.16
2023-02-03T14:22:19.055Z,101849.56
2023-02-03T14:24:50.976Z,101849.81
2023-02-03T14:27:32.830Z,101843.28
2023-02-03T14:30:14.278Z,101842.44
2023-02-03T14:33:04.617Z,101848.75
2023-02-03T14:35:41.999Z,101846.28
2023-02-03T14:38:15.987Z,101841.91
2023-02-03T14:40:57.667Z,101850.38
2023-02-03T14:43:36.285Z,101851.47
2023-02-03T14:46:46.263Z,101856.38
2023-02-03T14:49:20.708Z,101847.09
2023-02-03T14:52:23.133Z,101851.22
2023-02-03T14:55:21.797Z,101847.91
2023-02-03T14:57:56.987Z,101840.53
2023-02-03T15:00:32.760Z,101843.00
2023-02-03T15:03:26.794Z,101837.22
2023-02-03T15:06:06.245Z,101837.81
2023-02-03T15:08:50.071Z,101838.34
2023-02-03T15:11:33.559Z,101841.34
2023-02-03T15:14:23.446Z,101845.16
2023-02-03T15:17:00.945Z,101835.59
2023-02-03T15:19:37.551Z,101847.63
2023-02-03T15:22:25.609Z,101853.38
2023-02-03T15:25:18.294Z,101844.91
2023-02-03T15:27:49.572Z,101854.75
2023-02-03T15:30:32.070Z,101853.09
2023-02-03T15:33:09.020Z,101851.75
2023-02-03T15:35:40.814Z,101860.75
2023-02-03T15:38:30.085Z,101852.00
2023-02-03T15:41:01.164Z,101843.53
2023-02-03T15:43:47.053Z,101855.28
2023-02-03T15:46:23.109Z,101858.00
2023-02-03T15:49:06.284Z,101849.81
2023-02-03T15:51:45.441Z,101858.00
2023-02-03T15:54:42.478Z,101854.22
2023-02-03T15:57:35.932Z,101859.69
2023-02-03T16:00:35.188Z,101863.50
2023-02-03T16:03:09.474Z,101867.63
2023-02-03T16:05:40.509Z,101868.97
2023-02-03T16:08:50.636Z,101869.78
2023-02-03T16:11:27.377Z,101868.72
2023-02-03T16:14:01.137Z,101871.16
2023-02-03T16:17:02.530Z,101866.78
2023-02-03T16:19:39.586Z,101871.72
2023-02-03T16:22:33.753Z,101870.88
2023-02-03T16:25:24.845Z,101876.09
2023-02-03T16:28:22.358Z,101874.97
2023-02-03T16:31:14.312Z,101875.81
2023-02-03T16:34:08.327Z,101876.09
2023-02-03T16:37:02.547Z,101874.19
2023-02-03T16:39:51.470Z,101862.09
2023-02-03T16:42:41.832Z,101878.56
2023-02-03T16:45:36.876Z,101882.38
2023-02-03T16:48:26.216Z,101883.19
2023-02-03T16:50:59.647Z,101885.38
2023-02-03T16:53:33.423Z,101882.09
2023-02-03T16:56:06.245Z,101886.19
2023-02-03T16:58:37.923Z,101871.41
2023-02-03T17:01:11.047Z,101887.53
2023-02-03T17:03:42.095Z,101889.44
2023-02-03T17:06:14.593Z,101888.91
2023-02-03T17:08:45.749Z,101891.63
2023-02-03T17:11:20.928Z,101891.91
2023-02-03T17:13:52.420Z,101899.56
2023-02-03T17:16:26.001Z,101896.84
2023-02-03T17:18:57.400Z,101900.66
2023-02-03T17:21:29.774Z,101906.66
2023-02-03T17:24:01.056Z,101909.41
2023-02-03T17:26:32.062Z,101909.66
2023-02-03T17:29:04.776Z,101894.91
2023-02-03T17:31:36.364Z,101902.53
2023-02-03T17:34:07.423Z,101917.59
2023-02-03T17:36:38.511Z,101915.41
2023-02-03T17:55:35.674Z,101926.91
2023-02-03T17:58:06.624Z,101929.38
2023-02-03T18:00:38.057Z,101933.44
2023-02-03T18:03:09.212Z,101929.66
2023-02-03T18:05:40.939Z,101917.31
2023-02-03T18:08:16.660Z,101938.13
2023-02-03T18:10:51.425Z,101922.53
2023-02-03T18:13:24.911Z,101935.38
2023-02-03T18:15:58.647Z,101936.50
2023-02-03T18:18:30.498Z,101923.34
2023-02-03T18:21:01.980Z,101937.84
2023-02-03T18:23:34.133Z,101941.66
2023-02-03T18:26:08.640Z,101945.47
2023-02-03T18:28:40.996Z,101943.59
2023-02-03T18:31:17.283Z,101946.03
2023-02-03T18:33:49.863Z,101945.47
2023-02-03T18:36:21.205Z,101946.84
2023-02-03T18:38:52.180Z,101935.09
2023-02-03T18:41:25.654Z,101952.09
2023-02-03T18:43:56.907Z,101941.38
2023-02-03T18:46:31.272Z,101944.16
2023-02-03T18:49:02.717Z,101952.63
2023-02-03T18:51:33.672Z,101946.31
2023-02-03T18:54:05.361Z,101932.09
2023-02-03T18:56:38.947Z,101952.09
2023-02-03T18:59:12.480Z,101954.81
2023-02-03T19:01:47.968Z,101963.03
2023-02-03T19:04:19.435Z,101970.16
2023-02-03T19:06:50.407Z,101971.22
2023-02-03T19:09:23.781Z,101966.84
2023-02-03T19:11:56.103Z,101973.97
2023-02-03T19:14:27.521Z,101977.28
2023-02-03T19:16:58.738Z,101980.56
2023-02-03T19:19:29.907Z,101978.91
2023-02-03T19:22:01.203Z,101975.63
2023-02-03T19:24:32.929Z,101963.31
2023-02-03T19:27:04.236Z,101966.88
2023-02-03T19:29:35.988Z,101962.25
2023-02-03T19:32:09.478Z,101973.72
2023-02-03T19:34:41.350Z,101959.47
2023-02-03T19:37:13.104Z,101979.44
2023-02-03T19:39:44.404Z,101970.97
2023-02-03T19:42:15.341Z,101986.56
2023-02-03T19:44:46.589Z,101980.50
2023-02-03T19:47:18.013Z,101983.25
2023-02-03T19:49:49.127Z,101976.69
2023-02-03T19:52:20.407Z,101983.53
2023-02-03T19:54:55.309Z,101972.00
2023-02-03T19:57:26.589Z,101973.78
2023-02-03T19:59:58.264Z,101968.91
2023-02-03T20:02:30.166Z,101979.91
2023-02-03T20:05:01.524Z,101966.41
2023-02-03T20:07:35.235Z,101967.41
2023-02-03T20:10:06.783Z,101973.22
2023-02-03T20:12:37.900Z,101961.09
2023-02-03T20:15:09.603Z,101981.88
2023-02-03T20:17:41.187Z,101991.47
2023-02-03T20:20:12.691Z,101994.47
2023-02-03T20:22:43.987Z,101988.72
2023-02-03T20:25:15.361Z,101964.31
2023-02-03T20:27:46.659Z,101984.94
2023-02-03T20:30:18.036Z,101976.91
2023-02-03T20:32:49.283Z,101971.16
2023-02-03T20:35:21.247Z,101955.25
2023-02-03T20:37:52.953Z,101957.19
2023-02-03T20:40:25.427Z,101956.84
2023-02-03T20:42:56.857Z,101956.00
2023-02-03T20:45:27.651Z,101966.88
2023-02-03T20:47:58.962Z,101963.31
2023-02-03T20:50:41.444Z,101965.13
2023-02-03T20:53:18.348Z,101953.72
2023-02-03T20:55:49.722Z,101937.16
2023-02-03T20:58:24.718Z,101955.19
2023-02-03T21:00:58.719Z,101958.63
2023-02-03T21:03:48.739Z,101965.06
2023-02-03T21:06:23.116Z,101952.69
2023-02-03T21:08:54.514Z,101944.28
2023-02-03T21:11:28.849Z,101942.22
2023-02-03T21:14:00.197Z,101945.03
2023-02-03T21:16:40.681Z,101953.25
2023-02-03T21:19:35.529Z,101955.81
2023-02-03T21:22:27.465Z,101952.47
2023-02-03T21:25:00.418Z,101959.91
2023-02-03T21:27:34.986Z,101939.44
2023-02-03T21:30:25.132Z,101948.34
2023-02-03T21:32:56.496Z,101959.81
2023-02-03T21:35:32.742Z,101955.53
2023-02-03T21:38:05.522Z,101956.03
2023-02-03T21:40:37.406Z,101952.63
2023-02-03T21:43:19.382Z,101943.69
2023-02-03T21:45:51.145Z,101954.03
2023-02-03T21:48:26.277Z,101948.69
2023-02-03T21:50:59.269Z,101953.75
2023-02-03T21:53:36.174Z,101952.38
2023-02-03T21:56:23.849Z,101952.44
2023-02-03T21:58:58.969Z,101944.66
2023-02-03T22:01:38.560Z,101940.78
2023-02-03T22:04:10.418Z,101936.84
2023-02-03T22:06:46.078Z,101936.22
2023-02-03T22:09:22.341Z,101930.75
2023-02-03T22:11:54.368Z,101924.59
2023-02-03T22:14:25.652Z,101922.41
2023-02-03T22:16:56.797Z,101918.78
2023-02-03T22:19:28.290Z,101908.50
2023-02-03T22:21:59.256Z,101906.88
2023-02-03T22:24:29.937Z,101915.03
2023-02-03T22:27:01.649Z,101921.03
2023-02-03T22:29:33.101Z,101911.56
2023-02-03T22:32:04.078Z,101909.09
2023-02-03T22:34:35.125Z,101894.97
2023-02-03T22:37:05.764Z,101901.63
2023-02-03T22:39:37.034Z,101886.41
2023-02-03T22:42:08.341Z,101898.63
2023-02-03T22:44:39.479Z,101879.44
2023-02-03T22:47:10.894Z,101890.78
2023-02-03T22:49:42.037Z,101878.63
2023-02-03T22:52:13.059Z,101881.72
2023-02-03T22:54:47.073Z,101878.22
2023-02-03T22:57:18.248Z,101872.13
2023-02-03T22:59:49.312Z,101871.47
2023-02-03T23:02:20.420Z,101861.91
2023-02-03T23:04:52.070Z,101866.34
2023-02-03T23:07:23.461Z,101869.53
2023-02-03T23:09:54.805Z,101862.91
2023-02-03T23:12:26.031Z,101856.16
2023-02-03T23:14:57.252Z,101856.81
2023-02-03T23:17:27.837Z,101868.53
2023-02-03T23:19:59.046Z,101851.19
2023-02-03T23:22:29.619Z,101867.16
2023-02-03T23:25:01.805Z,101851.34
2023-02-03T23:27:33.867Z,101856.56
2023-02-03T23:30:04.603Z,101853.41
2023-02-03T23:32:35.664Z,101857.47
2023-02-03T23:35:25.863Z,101857.66
2023-02-03T23:37:56.824Z,101857.16
2023-02-03T23:40:28.489Z,101843.22
2023-02-03T23:43:00.292Z,101845.28
2023-02-03T23:45:31.776Z,101839.63
2023-02-03T23:48:03.203Z,101833.44
2023-02-03T23:50:33.858Z,101837.19
2023-02-03T23:53:05.078Z,101839.97
2023-02-03T23:55:37.797Z,101838.06
2023-02-03T23:58:08.993Z,101830.16
